Time;durP1;ratioP1;P1;durP2;ratioP2;P2;SDS_P1;SDS_P2;PMS_P1;PMS_P2;Temp;Humidity;BMP_temperature;BMP_pressure;BME280_temperature;BME280_humidity;BME280_pressure;Samples;Min_cycle;Max_cycle;Signal;HPM_P1;HPM_P2
2022/04/30 00:01:22;;;;;;;10.05;6.05;;;;;;;9.12;67.29;100619.25;4497860;31;34208;-59
2022/04/30 00:03:51;;;;;;;10.95;6.55;;;;;;;8.89;68.58;100605.75;4500612;31;33710;-59
2022/04/30 00:06:18;;;;;;;11.12;6.22;;;;;;;8.94;68.54;100613.78;4499098;31;34029;-59
2022/04/30 00:08:46;;;;;;;12.90;6.85;;;;;;;9.06;67.69;100609.41;4495637;31;33747;-59
2022/04/30 00:11:15;;;;;;;9.90;5.47;;;;;;;9.22;67.13;100616.44;4498837;31;33780;-58
2022/04/30 00:13:43;;;;;;;11.45;5.65;;;;;;;9.15;66.65;100609.97;4492338;31;33689;-59
2022/04/30 00:16:10;;;;;;;11.77;5.45;;;;;;;9.13;66.28;100610.69;4498582;31;34473;-58
2022/04/30 00:18:38;;;;;;;9.88;5.03;;;;;;;9.24;65.68;100615.72;4498245;31;34325;-60
2022/04/30 00:21:05;;;;;;;9.23;5.00;;;;;;;10.04;62.62;100599.94;4495489;31;33623;-58
2022/04/30 00:23:33;;;;;;;10.00;5.40;;;;;;;9.55;64.57;100602.13;4495719;31;34878;-58
2022/04/30 00:26:00;;;;;;;9.15;5.10;;;;;;;9.47;64.80;100603.34;4489162;31;32309;-59
2022/04/30 00:28:28;;;;;;;9.32;5.47;;;;;;;9.28;65.68;100598.72;4492825;31;33537;-59
2022/04/30 00:30:55;;;;;;;7.87;4.72;;;;;;;9.32;65.08;100602.41;4493857;31;34613;-59
2022/04/30 00:33:23;;;;;;;10.55;5.65;;;;;;;9.61;64.21;100612.84;4500055;31;34012;-60
2022/04/30 00:35:52;;;;;;;11.23;5.65;;;;;;;9.37;64.96;100611.34;4499754;31;34687;-60
2022/04/30 00:38:19;;;;;;;8.15;5.20;;;;;;;9.28;65.76;100601.31;4500181;31;33974;-60
2022/04/30 00:40:47;;;;;;;7.50;4.55;;;;;;;9.32;64.11;100608.47;4499259;31;33848;-59
2022/04/30 00:43:15;;;;;;;8.32;3.95;;;;;;;9.70;62.27;100601.31;4492719;31;34009;-59
2022/04/30 00:45:48;;;;;;;9.77;5.28;;;;;;;10.18;60.63;100607.63;4495377;31;34659;-59
2022/04/30 00:48:16;;;;;;;12.07;5.72;;;;;;;9.94;61.77;100607.94;4491542;31;31962;-58
2022/04/30 00:50:44;;;;;;;10.88;6.00;;;;;;;9.91;63.73;100606.84;4499545;31;33731;-60
2022/04/30 00:53:13;;;;;;;10.93;5.90;;;;;;;10.30;62.09;100613.56;4500081;31;34035;-59
2022/04/30 00:55:43;;;;;;;11.38;6.00;;;;;;;10.12;62.75;100607.25;4495781;31;34767;-58
2022/04/30 00:58:14;;;;;;;11.23;5.45;;;;;;;10.74;60.34;100607.47;4498613;31;33458;-59
2022/04/30 01:00:43;;;;;;;10.77;7.28;;;;;;;10.98;60.50;100604.47;4500062;31;34669;-59
2022/04/30 01:03:11;;;;;;;15.00;6.62;;;;;;;11.29;59.55;100613.94;4499371;31;34609;-59
2022/04/30 01:05:40;;;;;;;11.60;6.72;;;;;;;10.48;63.11;100620.63;4498188;31;33906;-59
2022/04/30 01:08:08;;;;;;;9.60;6.15;;;;;;;10.88;61.20;100612.53;4489943;31;34137;-60
2022/04/30 01:10:36;;;;;;;8.65;5.72;;;;;;;10.55;62.64;100615.88;4498653;31;33764;-58
2022/04/30 01:13:03;;;;;;;11.45;4.90;;;;;;;11.32;60.28;100606.31;4490082;31;34689;-58
2022/04/30 01:15:31;;;;;;;9.20;5.80;;;;;;;11.19;60.76;100607.38;4498163;31;33857;-58
2022/04/30 01:17:59;;;;;;;9.40;5.07;;;;;;;10.96;61.24;100608.69;4490853;31;34096;-58
2022/04/30 01:20:27;;;;;;;9.40;5.40;;;;;;;10.65;61.92;100606.06;4484140;31;34565;-58
2022/04/30 01:23:04;;;;;;;9.50;5.62;;;;;;;10.65;62.74;100612.12;4490278;31;34006;-59
2022/04/30 01:25:33;;;;;;;8.35;5.37;;;;;;;9.88;65.52;100607.56;4496059;31;33946;-58
2022/04/30 01:28:01;;;;;;;8.70;5.65;;;;;;;10.41;63.40;100602.13;4496696;31;33456;-58
2022/04/30 01:30:29;;;;;;;9.98;5.30;;;;;;;10.95;61.12;100601.69;4494057;31;33409;-58
2022/04/30 01:38:29;;;;;;;9.20;4.80;;;;;;;9.77;64.57;100603.44;4494051;31;33176;-60
2022/04/30 01:40:57;;;;;;;12.23;6.28;;;;;;;9.04;67.31;100604.13;4491006;31;32256;-58
2022/04/30 01:43:26;;;;;;;9.85;5.53;;;;;;;8.79;69.73;100601.69;4488461;31;34550;-59
2022/04/30 01:45:54;;;;;;;9.35;5.93;;;;;;;8.65;69.56;100605.94;4489560;31;34750;-58
2022/04/30 01:48:22;;;;;;;9.07;5.05;;;;;;;8.65;69.37;100599.87;4501602;31;34114;-58
2022/04/30 01:50:50;;;;;;;9.32;5.47;;;;;;;8.70;69.05;100597.59;4494304;31;34683;-59
2022/04/30 01:53:18;;;;;;;11.73;6.18;;;;;;;8.43;70.84;100588.12;4489443;31;34540;-59
2022/04/30 01:55:46;;;;;;;15.40;7.62;;;;;;;8.36;72.05;100591.06;4497958;31;34017;-60
2022/04/30 01:58:14;;;;;;;15.68;8.63;;;;;;;8.27;73.34;100590.47;4489152;31;32972;-57
2022/04/30 02:00:43;;;;;;;16.65;9.02;;;;;;;7.91;74.93;100592.38;4488036;31;34464;-59
2022/04/30 02:03:12;;;;;;;17.58;8.82;;;;;;;8.27;73.84;100591.38;4496057;26;34686;-82
2022/04/30 02:05:47;;;;;;;15.75;8.05;;;;;;;8.04;74.70;100582.09;4465231;32;33730;-81
2022/04/30 02:08:17;;;;;;;14.20;8.40;;;;;;;8.55;72.47;100592.31;4448596;32;33753;-60
2022/04/30 02:10:47;;;;;;;11.40;6.03;;;;;;;9.36;70.09;100581.09;4453871;32;33460;-61
2022/04/30 02:13:16;;;;;;;9.43;5.43;;;;;;;9.73;67.64;100580.78;4454826;32;34708;-59
2022/04/30 02:15:45;;;;;;;9.45;5.28;;;;;;;10.63;63.06;100572.28;4447819;32;34474;-59
2022/04/30 02:18:13;;;;;;;9.25;4.47;;;;;;;10.14;64.74;100571.97;4441332;32;33414;-61
2022/04/30 02:20:44;;;;;;;8.55;4.07;;;;;;;10.32;64.03;100575.69;4441199;32;33720;-59
2022/04/30 02:23:14;;;;;;;7.25;4.20;;;;;;;9.33;66.16;100574.06;4455257;32;33697;-60
2022/04/30 02:25:42;;;;;;;8.88;4.32;;;;;;;8.84;67.52;100577.00;4430249;32;33627;-61
2022/04/30 02:28:09;;;;;;;8.30;4.60;;;;;;;8.46;68.92;100583.19;4448618;32;33502;-61
2022/04/30 02:30:38;;;;;;;10.02;4.80;;;;;;;8.72;68.33;100576.22;4447990;32;34635;-59
2022/04/30 02:33:10;;;;;;;8.73;5.22;;;;;;;8.22;71.08;100576.37;4454564;32;34669;-60
2022/04/30 02:35:40;;;;;;;9.60;4.75;;;;;;;8.24;71.33;100574.78;4444565;32;34696;-60
2022/04/30 02:38:08;;;;;;;8.80;4.85;;;;;;;8.35;71.11;100583.25;4447926;32;33565;-60
2022/04/30 02:40:38;;;;;;;8.27;5.22;;;;;;;7.94;72.35;100577.09;4433715;32;34407;-59
2022/04/30 02:43:15;;;;;;;8.85;5.43;;;;;;;8.79;69.68;100572.37;4450043;32;33713;-61
2022/04/30 02:45:43;;;;;;;8.75;4.82;;;;;;;8.85;69.86;100568.47;4435995;32;33543;-61
2022/04/30 02:48:15;;;;;;;8.85;5.03;;;;;;;8.74;69.56;100566.91;4452180;32;31912;-61
2022/04/30 02:50:42;;;;;;;13.30;6.15;;;;;;;8.44;70.37;100566.72;4449528;32;33783;-61
2022/04/30 02:53:10;;;;;;;11.27;6.35;;;;;;;7.77;73.44;100568.22;4453213;32;33755;-60
2022/04/30 02:55:38;;;;;;;14.55;8.25;;;;;;;7.77;74.25;100569.91;4451102;32;33030;-59
2022/04/30 03:00:52;;;;;;;14.68;8.20;;;;;;;7.24;77.09;100550.84;4450421;32;33813;-60
2022/04/30 03:03:21;;;;;;;20.08;7.80;;;;;;;7.18;77.30;100544.34;4453727;32;33738;-61
2022/04/30 03:05:51;;;;;;;12.70;7.12;;;;;;;7.34;77.13;100547.22;4440968;32;34423;-59
2022/04/30 03:08:20;;;;;;;12.30;6.87;;;;;;;7.04;78.45;100548.53;4438656;32;32667;-60
2022/04/30 03:10:51;;;;;;;13.82;7.22;;;;;;;6.95;78.58;100550.47;4428389;32;34635;-60
2022/04/30 03:13:19;;;;;;;14.10;7.05;;;;;;;7.91;74.64;100558.84;4435812;32;33005;-61
2022/04/30 03:15:52;;;;;;;13.95;7.28;;;;;;;7.82;74.05;100560.78;4433300;32;34580;-60
2022/04/30 03:23:40;;;;;;;8.88;5.65;;;;;;;8.05;71.74;100558.09;4427098;32;33762;-59
2022/04/30 03:26:09;;;;;;;12.30;5.68;;;;;;;8.22;72.66;100566.94;4438018;32;34039;-59
2022/04/30 03:28:37;;;;;;;12.43;6.35;;;;;;;7.94;72.52;100561.63;4425080;32;33583;-60
2022/04/30 03:31:05;;;;;;;12.02;5.93;;;;;;;8.90;69.14;100554.97;4438336;32;34498;-60
2022/04/30 03:33:33;;;;;;;8.25;5.20;;;;;;;8.09;70.79;100559.16;4438734;32;33465;-60
2022/04/30 03:36:02;;;;;;;9.02;5.53;;;;;;;8.88;68.65;100562.59;4437973;32;34544;-59
2022/04/30 03:38:29;;;;;;;8.63;4.90;;;;;;;8.00;71.32;100569.78;4438417;32;33979;-58
2022/04/30 03:40:57;;;;;;;10.15;5.65;;;;;;;7.55;72.20;100571.03;4438892;32;33983;-60
2022/04/30 03:43:25;;;;;;;9.45;5.57;;;;;;;8.15;70.61;100563.84;4438011;32;34489;-59
2022/04/30 03:45:52;;;;;;;11.63;5.20;;;;;;;8.62;68.84;100564.41;4438126;32;33923;-60
2022/04/30 03:48:20;;;;;;;9.90;5.20;;;;;;;8.92;67.97;100561.12;4438825;32;34310;-61
2022/04/30 03:50:47;;;;;;;9.63;5.85;;;;;;;7.96;71.60;100562.63;4438549;32;34069;-59
2022/04/30 03:53:15;;;;;;;13.77;6.53;;;;;;;7.81;71.55;100561.59;4437639;32;33847;-61
2022/04/30 03:55:43;;;;;;;11.45;6.37;;;;;;;7.54;72.85;100566.63;4438883;32;33878;-61
2022/04/30 03:58:11;;;;;;;11.98;6.40;;;;;;;7.98;71.47;100561.03;4437344;32;34332;-59
2022/04/30 04:00:38;;;;;;;11.25;6.25;;;;;;;7.80;73.49;100564.94;4437607;32;33857;-59
2022/04/30 04:03:06;;;;;;;13.62;6.18;;;;;;;8.45;71.14;100565.00;4438646;32;33857;-61
2022/04/30 04:05:33;;;;;;;10.77;6.78;;;;;;;7.93;72.96;100567.56;4438536;32;34596;-60
2022/04/30 04:08:01;;;;;;;12.45;6.68;;;;;;;8.04;72.17;100565.72;4453075;32;33408;-60
2022/04/30 04:10:29;;;;;;;10.20;6.70;;;;;;;8.28;70.81;100558.69;4451309;32;33700;-59
2022/04/30 04:17:37;;;;;;;12.27;5.72;;;;;;;9.00;68.26;100562.47;4437945;32;32278;-60
2022/04/30 04:18:30;;;;;;;13.07;6.00;;;;;;;8.52;69.39;100571.44;4444035;32;33395;-60
2022/04/30 04:20:58;;;;;;;10.60;6.80;;;;;;;8.21;70.54;100574.59;4438357;32;33955;-59
2022/04/30 04:23:25;;;;;;;12.37;6.28;;;;;;;8.08;70.98;100572.87;4447956;32;34406;-60
2022/04/30 04:25:59;;;;;;;12.15;6.93;;;;;;;8.27;70.39;100580.16;4442129;32;33455;-61
2022/04/30 04:28:27;;;;;;;13.57;7.57;;;;;;;8.45;70.13;100576.22;4454180;32;33211;-60
2022/04/30 04:30:57;;;;;;;10.93;6.78;;;;;;;8.27;71.05;100580.16;4451266;32;34474;-59
2022/04/30 04:33:25;;;;;;;9.32;5.90;;;;;;;8.35;70.28;100584.12;4445676;32;33712;-61
2022/04/30 04:35:52;;;;;;;11.93;7.28;;;;;;;8.84;69.24;100571.84;4447112;32;33900;-60
2022/04/30 04:38:20;;;;;;;12.90;6.72;;;;;;;8.26;70.85;100579.25;4451313;32;34148;-61
2022/04/30 04:40:47;;;;;;;12.50;6.93;;;;;;;8.68;70.00;100571.66;4453524;32;33802;-60
2022/04/30 04:43:15;;;;;;;13.70;7.15;;;;;;;8.58;70.95;100577.03;4453326;32;33806;-61
2022/04/30 04:45:43;;;;;;;14.23;8.00;;;;;;;8.72;70.75;100571.06;4448896;32;33788;-59
2022/04/30 04:48:11;;;;;;;14.27;7.80;;;;;;;8.85;70.34;100572.75;4434437;32;32651;-59
2022/04/30 04:50:40;;;;;;;11.07;7.18;;;;;;;8.76;71.29;100569.59;4452617;32;34608;-59
2022/04/30 04:53:08;;;;;;;13.38;7.57;;;;;;;9.03;70.28;100579.09;4445799;32;33400;-60
2022/04/30 04:55:36;;;;;;;12.52;7.32;;;;;;;9.70;68.27;100578.03;4453078;32;33965;-60
2022/04/30 04:58:04;;;;;;;11.60;6.93;;;;;;;9.79;67.54;100573.38;4426406;32;33359;-60
2022/04/30 05:00:33;;;;;;;9.73;7.00;;;;;;;10.24;65.76;100576.91;4452295;32;34287;-61
2022/04/30 05:03:01;;;;;;;12.82;6.18;;;;;;;10.29;66.08;100575.47;4447931;32;32336;-59
2022/04/30 05:05:29;;;;;;;11.85;6.22;;;;;;;9.79;67.90;100573.38;4434594;32;34170;-59
2022/04/30 05:07:56;;;;;;;10.68;6.43;;;;;;;9.70;68.88;100575.44;4449080;32;33580;-61
2022/04/30 05:10:24;;;;;;;11.63;7.50;;;;;;;9.91;68.49;100571.53;4455637;32;33888;-60
2022/04/30 05:12:51;;;;;;;12.95;7.50;;;;;;;10.12;67.83;100578.78;4446516;32;32310;-60
2022/04/30 05:15:19;;;;;;;14.00;7.57;;;;;;;10.12;68.37;100578.78;4448204;32;33587;-61
2022/04/30 05:17:46;;;;;;;15.15;7.62;;;;;;;10.39;67.01;100577.84;4448240;32;32936;-60
2022/04/30 05:20:14;;;;;;;12.00;7.55;;;;;;;10.28;67.33;100578.88;4450763;32;33682;-61
2022/04/30 05:23:01;;;;;;;13.82;8.27;;;;;;;10.97;65.62;100574.16;4453367;32;34238;-61
2022/04/30 05:25:29;;;;;;;12.50;7.78;;;;;;;11.34;65.03;100571.00;4449028;32;34627;-59
2022/04/30 05:27:57;;;;;;;14.23;8.75;;;;;;;11.43;65.74;100571.47;4451398;32;33584;-60
2022/04/30 05:30:24;;;;;;;12.70;8.20;;;;;;;11.28;66.28;100570.66;4453915;32;34459;-59
2022/04/30 05:32:52;;;;;;;11.18;7.90;;;;;;;11.46;65.78;100579.44;4455332;32;34045;-61
2022/04/30 05:35:20;;;;;;;12.18;8.02;;;;;;;12.04;64.04;100580.75;4443234;32;33886;-60
2022/04/30 05:37:47;;;;;;;13.00;7.45;;;;;;;12.20;62.85;100573.78;4442580;32;33356;-60
2022/04/30 05:40:15;;;;;;;16.23;7.22;;;;;;;12.58;61.37;100576.53;4453000;32;34609;-60
2022/04/30 05:42:42;;;;;;;11.65;7.03;;;;;;;13.01;59.76;100570.78;4447821;32;34013;-59
2022/04/30 05:45:10;;;;;;;12.48;7.25;;;;;;;13.26;58.50;100571.94;4451797;32;34674;-59
2022/04/30 05:47:38;;;;;;;11.73;6.22;;;;;;;13.47;57.60;100572.06;4454238;32;33497;-61
2022/04/30 05:50:10;;;;;;;12.60;7.10;;;;;;;13.61;56.31;100572.69;4447470;32;33923;-60
2022/04/30 05:52:38;;;;;;;9.50;6.15;;;;;;;13.71;55.78;100572.25;4448181;32;34031;-61
2022/04/30 05:55:06;;;;;;;8.60;5.28;;;;;;;13.60;55.74;100568.28;4447160;32;33764;-60
2022/04/30 05:57:33;;;;;;;8.73;5.30;;;;;;;13.66;53.65;100572.06;4445143;32;33455;-61
2022/04/30 06:00:01;;;;;;;9.73;6.18;;;;;;;13.89;50.60;100572.22;4441781;32;34532;-61
2022/04/30 06:02:31;;;;;;;8.27;5.07;;;;;;;13.90;50.79;100564.44;4448755;32;36596;-61
2022/04/30 06:04:59;;;;;;;11.18;5.87;;;;;;;14.24;50.14;100570.22;4452388;32;33831;-61
2022/04/30 06:07:26;;;;;;;9.02;4.95;;;;;;;14.52;49.36;100567.03;4441122;32;33452;-61
2022/04/30 06:09:55;;;;;;;8.85;4.82;;;;;;;14.61;48.65;100572.66;4437312;32;34841;-60
2022/04/30 06:12:23;;;;;;;9.65;4.72;;;;;;;14.64;48.35;100561.47;4436245;32;33545;-62
2022/04/30 06:14:51;;;;;;;8.73;4.90;;;;;;;14.69;47.19;100566.03;4435418;32;33904;-60
2022/04/30 06:17:18;;;;;;;8.50;4.97;;;;;;;14.86;47.01;100564.09;4438583;32;33447;-61
2022/04/30 06:19:46;;;;;;;8.85;4.70;;;;;;;14.88;47.36;100564.16;4438580;32;33678;-60
2022/04/30 06:22:13;;;;;;;7.20;4.93;;;;;;;14.87;46.31;100559.78;4435778;32;33530;-60
2022/04/30 06:24:41;;;;;;;9.68;5.05;;;;;;;15.09;46.27;100562.41;4438375;32;34579;-60
2022/04/30 06:27:09;;;;;;;7.15;4.95;;;;;;;15.03;45.54;100567.38;4437220;32;31202;-60
2022/04/30 06:29:38;;;;;;;6.72;4.20;;;;;;;15.37;44.97;100565.16;4440041;32;34656;-59
2022/04/30 06:32:06;;;;;;;7.65;4.62;;;;;;;15.66;44.82;100555.78;4439995;32;34422;-61
2022/04/30 06:34:34;;;;;;;8.02;4.70;;;;;;;15.82;44.55;100563.41;4438160;32;33775;-60
2022/04/30 06:37:02;;;;;;;8.93;4.55;;;;;;;15.81;45.34;100563.34;4439578;32;32625;-60
2022/04/30 06:39:30;;;;;;;9.43;4.93;;;;;;;16.06;44.16;100567.69;4434321;32;32184;-60
2022/04/30 06:41:58;;;;;;;10.10;5.57;;;;;;;16.21;44.25;100573.47;4439029;32;34839;-60
2022/04/30 06:44:25;;;;;;;8.65;5.15;;;;;;;16.13;42.76;100567.09;4439193;32;34586;-61
2022/04/30 06:46:54;;;;;;;7.57;5.37;;;;;;;16.63;42.76;100567.88;4439286;32;33723;-61
2022/04/30 06:49:23;;;;;;;7.78;4.85;;;;;;;16.54;43.42;100567.59;4436292;32;33969;-59
2022/04/30 06:51:51;;;;;;;8.95;5.28;;;;;;;16.47;43.95;100560.38;4435157;32;33956;-60
2022/04/30 06:57:08;;;;;;;8.60;5.43;;;;;;;17.13;42.50;100562.47;4439145;32;34249;-60
2022/04/30 06:59:40;;;;;;;8.25;5.37;;;;;;;16.68;42.45;100554.94;4437467;32;33128;-62
2022/04/30 07:02:13;;;;;;;9.65;5.50;;;;;;;16.77;42.65;100560.47;4439857;32;33488;-60
2022/04/30 07:04:41;;;;;;;11.68;5.10;;;;;;;17.43;40.68;100554.66;4433330;32;34036;-60
2022/04/30 07:07:10;;;;;;;9.52;5.05;;;;;;;17.57;40.32;100567.25;4439582;32;33595;-60
2022/04/30 07:09:38;;;;;;;7.10;4.80;;;;;;;17.91;41.03;100560.38;4442372;32;32874;-62
2022/04/30 07:12:09;;;;;;;8.30;5.37;;;;;;;17.90;41.75;100555.97;4445797;32;34053;-60
2022/04/30 07:14:39;;;;;;;10.20;5.28;;;;;;;18.09;41.53;100563.47;4436053;32;34396;-60
2022/04/30 07:17:13;;;;;;;7.80;5.12;;;;;;;18.20;41.73;100556.78;4436874;32;33360;-61
2022/04/30 07:19:41;;;;;;;10.35;5.85;;;;;;;18.86;39.16;100554.94;4441840;32;33817;-60
2022/04/30 07:22:08;;;;;;;8.52;5.30;;;;;;;18.24;39.25;100557.75;4444965;32;33553;-60
2022/04/30 07:24:36;;;;;;;9.38;5.65;;;;;;;18.44;39.99;100550.38;4443975;32;33961;-59
2022/04/30 07:27:05;;;;;;;8.20;5.45;;;;;;;18.38;40.60;100550.25;4429306;32;34114;-60
2022/04/30 07:29:33;;;;;;;7.65;5.43;;;;;;;18.55;39.26;100553.28;4446738;32;34516;-59
2022/04/30 07:32:01;;;;;;;9.02;5.78;;;;;;;18.54;39.33;100544.50;4442525;32;33889;-60
2022/04/30 07:34:29;;;;;;;9.80;5.15;;;;;;;18.62;40.34;100542.97;4447030;32;34198;-60
2022/04/30 07:36:56;;;;;;;8.75;5.32;;;;;;;18.82;39.01;100547.84;4447698;32;33334;-62
2022/04/30 07:39:24;;;;;;;9.85;5.53;;;;;;;19.51;38.31;100540.56;4438482;32;34592;-62
2022/04/30 07:41:55;;;;;;;9.32;6.03;;;;;;;20.21;37.39;100539.28;4446380;32;34566;-61
2022/04/30 07:44:26;;;;;;;6.32;4.75;;;;;;;19.97;36.18;100541.47;4434112;32;33519;-61
2022/04/30 07:46:54;;;;;;;10.63;5.07;;;;;;;20.38;36.27;100534.31;4438698;32;33968;-61
2022/04/30 07:49:22;;;;;;;9.20;5.62;;;;;;;21.07;34.33;100536.25;4430214;32;33670;-63
2022/04/30 07:51:55;;;;;;;7.97;5.05;;;;;;;21.16;33.74;100539.00;4439015;32;34696;-62
2022/04/30 07:54:25;;;;;;;7.10;4.85;;;;;;;20.81;34.75;100536.78;4434069;32;33920;-62
2022/04/30 07:56:56;;;;;;;9.63;5.15;;;;;;;21.45;34.32;100543.81;4435640;32;33411;-61
2022/04/30 07:59:24;;;;;;;13.20;6.30;;;;;;;21.62;34.64;100542.25;4442058;32;34001;-61
2022/04/30 08:01:52;;;;;;;10.20;5.37;;;;;;;21.07;33.86;100541.50;4433289;32;33986;-62
2022/04/30 08:04:20;;;;;;;9.60;5.53;;;;;;;21.51;33.74;100534.22;4446707;32;33744;-61
2022/04/30 08:06:47;;;;;;;8.43;5.80;;;;;;;22.06;33.48;100533.03;4447620;32;33075;-62
2022/04/30 08:09:15;;;;;;;9.00;5.55;;;;;;;22.57;32.11;100529.13;4441559;32;34654;-62
2022/04/30 08:11:43;;;;;;;8.13;5.30;;;;;;;22.55;32.07;100529.09;4433500;32;34333;-61
2022/04/30 08:14:11;;;;;;;13.32;5.80;;;;;;;23.01;31.62;100532.94;4418595;32;34025;-61
2022/04/30 08:16:38;;;;;;;8.65;5.82;;;;;;;22.93;31.43;100533.75;4429889;32;34108;-60
2022/04/30 08:19:06;;;;;;;8.35;5.93;;;;;;;23.62;31.18;100533.19;4433132;32;33794;-63
2022/04/30 08:21:33;;;;;;;6.70;4.78;;;;;;;23.42;30.43;100534.91;4438533;32;34658;-62
2022/04/30 08:24:01;;;;;;;7.43;5.10;;;;;;;23.57;31.06;100534.09;4447870;32;34739;-62
2022/04/30 08:26:29;;;;;;;8.65;5.53;;;;;;;22.85;30.48;100532.84;4438681;32;33658;-61
2022/04/30 08:28:56;;;;;;;9.13;5.78;;;;;;;23.22;30.31;100530.44;4431795;32;34624;-61
2022/04/30 08:31:24;;;;;;;7.03;4.68;;;;;;;23.43;30.97;100531.38;4429450;32;33834;-61
2022/04/30 08:33:53;;;;;;;9.32;4.90;;;;;;;23.44;29.56;100527.88;4432184;32;33890;-60
2022/04/30 08:36:20;;;;;;;7.70;5.00;;;;;;;23.68;30.18;100535.87;4436792;32;34168;-60
2022/04/30 08:38:48;;;;;;;8.13;4.97;;;;;;;23.72;30.04;100529.72;4443189;32;34789;-61
2022/04/30 08:41:16;;;;;;;8.13;4.75;;;;;;;23.54;30.56;100524.38;4452391;32;33592;-62
2022/04/30 08:43:48;;;;;;;7.93;4.25;;;;;;;23.75;30.84;100535.00;4425867;32;34660;-62
2022/04/30 08:46:20;;;;;;;9.05;3.90;;;;;;;24.23;29.40;100521.00;4420529;32;33571;-62
2022/04/30 08:48:48;;;;;;;7.72;4.00;;;;;;;24.06;29.33;100518.34;4441539;32;34566;-61
2022/04/30 08:51:16;;;;;;;7.05;4.22;;;;;;;23.89;29.57;100513.03;4450608;32;34064;-62
2022/04/30 08:53:44;;;;;;;8.15;4.75;;;;;;;23.93;29.11;100512.16;4439268;32;34048;-60
2022/04/30 08:56:12;;;;;;;9.60;4.30;;;;;;;23.40;29.10;100520.81;4425442;32;33382;-61
2022/04/30 08:58:40;;;;;;;7.57;4.20;;;;;;;23.17;29.23;100524.22;4442416;32;34538;-62
2022/04/30 09:01:10;;;;;;;5.70;4.12;;;;;;;23.74;29.01;100516.50;4435784;32;34620;-63
2022/04/30 09:03:38;;;;;;;10.02;4.28;;;;;;;23.61;28.38;100517.34;4426898;32;33822;-63
2022/04/30 09:06:06;;;;;;;5.78;3.62;;;;;;;24.03;28.87;100494.50;4432023;32;34279;-61
2022/04/30 09:08:35;;;;;;;5.53;3.72;;;;;;;24.07;26.69;100499.81;4449473;32;33809;-63
2022/04/30 09:11:07;;;;;;;6.25;3.78;;;;;;;24.07;26.81;100505.13;4448314;32;33811;-63
2022/04/30 09:13:46;;;;;;;7.72;3.53;;;;;;;24.06;29.04;100498.03;4449704;32;34207;-62
2022/04/30 09:16:21;;;;;;;12.80;3.65;;;;;;;23.91;27.16;100495.38;4453286;32;33464;-61
2022/04/30 09:18:50;;;;;;;6.35;3.60;;;;;;;24.44;26.33;100481.28;4451847;32;33964;-62
2022/04/30 09:21:18;;;;;;;6.55;3.47;;;;;;;23.98;25.81;100486.59;4451070;32;34687;-62
2022/04/30 09:23:46;;;;;;;6.53;3.72;;;;;;;24.45;25.72;100484.81;4452879;32;34487;-61
2022/04/30 09:26:14;;;;;;;5.80;3.42;;;;;;;24.19;25.38;100480.41;4452414;32;34253;-60
2022/04/30 09:28:45;;;;;;;6.12;4.05;;;;;;;24.60;26.03;100486.59;4447529;32;33151;-62
2022/04/30 09:31:21;;;;;;;6.85;3.83;;;;;;;24.36;26.06;100480.41;4450451;32;33567;-62
2022/04/30 09:33:48;;;;;;;5.60;3.85;;;;;;;24.06;26.36;100479.53;4451971;32;33800;-60
2022/04/30 09:39:13;;;;;;;5.82;3.62;;;;;;;24.27;24.73;100469.81;4444985;32;33458;-62
2022/04/30 09:41:41;;;;;;;5.85;3.72;;;;;;;24.12;26.15;100466.28;4449708;32;33858;-61
2022/04/30 09:44:12;;;;;;;7.45;3.45;;;;;;;24.37;24.26;100465.41;4443328;32;34086;-61
2022/04/30 09:46:41;;;;;;;7.53;4.05;;;;;;;24.65;24.74;100461.84;4441222;32;33272;-62
2022/04/30 09:54:42;;;;;;;7.05;4.32;;;;;;;25.08;25.06;100463.47;4450024;32;33988;-61
2022/04/30 09:57:14;;;;;;;5.90;3.60;;;;;;;24.32;24.58;100457.47;4438615;32;33335;-63
2022/04/30 09:59:42;;;;;;;5.97;3.47;;;;;;;24.52;24.02;100458.34;4449656;32;33991;-60
2022/04/30 10:02:13;;;;;;;6.07;3.70;;;;;;;24.60;24.00;100453.03;4449559;32;34155;-63
2022/04/30 10:04:43;;;;;;;6.87;3.92;;;;;;;24.27;25.11;100448.66;4445660;32;33454;-62
2022/04/30 10:07:11;;;;;;;7.07;3.72;;;;;;;23.80;25.00;100446.87;4450594;32;33090;-61
2022/04/30 10:09:42;;;;;;;5.62;3.67;;;;;;;23.94;25.78;100435.41;4433588;32;33519;-61
2022/04/30 10:12:33;;;;;;;6.72;3.87;;;;;;;23.75;25.20;100437.13;4425023;32;34680;-60
2022/04/30 10:15:32;;;;;;;6.30;3.60;;;;;;;23.49;24.97;100436.25;4436664;32;34024;-61
2022/04/30 10:18:00;;;;;;;7.20;4.10;;;;;;;23.82;24.97;100429.25;4437363;32;32941;-61
2022/04/30 10:20:51;;;;;;;7.25;3.85;;;;;;;24.18;25.12;100432.75;4435626;32;34756;-61
2022/04/30 10:23:21;;;;;;;6.70;3.75;;;;;;;23.62;26.34;100432.69;4437754;32;33908;-60
2022/04/30 10:25:49;;;;;;;7.90;4.60;;;;;;;23.45;26.34;100434.44;4439359;32;33704;-60
2022/04/30 10:28:16;;;;;;;6.78;4.18;;;;;;;23.39;26.11;100423.84;4439253;32;33565;-60
2022/04/30 10:31:05;;;;;;;8.65;4.07;;;;;;;23.71;26.27;100419.50;4435217;32;33801;-60
2022/04/30 10:33:33;;;;;;;7.85;4.05;;;;;;;23.79;28.32;100429.25;4437215;32;33688;-60
2022/04/30 10:36:06;;;;;;;7.90;4.45;;;;;;;23.32;28.48;100429.12;4426626;32;33865;-61
2022/04/30 10:38:34;;;;;;;6.82;4.62;;;;;;;23.20;28.09;100423.81;4439312;32;34146;-60
2022/04/30 10:41:04;;;;;;;9.27;4.87;;;;;;;22.38;30.67;100419.84;4438652;32;33868;-60
2022/04/30 10:43:39;;;;;;;6.18;4.35;;;;;;;23.61;28.70;100419.50;4441769;32;33942;-60
2022/04/30 10:46:12;;;;;;;8.85;4.25;;;;;;;23.13;28.90;100412.31;4434682;32;33902;-61
2022/04/30 10:48:41;;;;;;;8.18;4.03;;;;;;;23.93;25.29;100406.31;4438785;32;31871;-60
2022/04/30 10:51:10;;;;;;;7.45;4.25;;;;;;;24.25;24.52;100405.41;4438081;32;33248;-60
2022/04/30 10:53:42;;;;;;;6.35;4.30;;;;;;;24.35;25.04;100409.78;4438938;32;32733;-60
2022/04/30 10:56:10;;;;;;;11.12;5.00;;;;;;;24.84;24.95;100407.06;4436528;32;34646;-61
2022/04/30 10:58:38;;;;;;;7.32;4.10;;;;;;;24.70;25.52;100406.19;4438879;32;33616;-60
2022/04/30 11:01:13;;;;;;;8.85;4.40;;;;;;;24.92;24.31;100397.28;4436678;32;35791;-60
2022/04/30 11:03:45;;;;;;;10.80;4.95;;;;;;;24.91;27.39;100400.81;4438167;32;33798;-61
2022/04/30 11:06:24;;;;;;;8.07;4.18;;;;;;;23.16;26.63;100390.34;4426747;32;33768;-62
2022/04/30 11:09:06;;;;;;;8.10;4.12;;;;;;;24.40;26.08;100394.78;4434802;32;33773;-60
2022/04/30 11:11:35;;;;;;;6.45;3.83;;;;;;;24.73;25.96;100393.84;4438583;32;34036;-61
2022/04/30 11:14:05;;;;;;;8.63;4.40;;;;;;;25.50;25.24;100384.62;4444507;32;34456;-60
2022/04/30 11:16:45;;;;;;;5.93;4.15;;;;;;;25.29;25.15;100381.22;4439662;32;32230;-61
2022/04/30 11:19:14;;;;;;;6.03;3.40;;;;;;;26.10;22.46;100376.19;4439273;32;33244;-61
2022/04/30 11:21:53;;;;;;;6.90;3.75;;;;;;;25.46;21.75;100377.59;4440794;32;34486;-59
2022/04/30 11:24:31;;;;;;;5.20;3.28;;;;;;;26.12;23.05;100378.84;4422943;32;33926;-61
2022/04/30 11:27:03;;;;;;;8.77;3.80;;;;;;;26.03;23.67;100378.00;4433615;32;35574;-61
2022/04/30 11:29:36;;;;;;;5.18;3.55;;;;;;;26.16;22.67;100372.59;4435227;32;33547;-62
2022/04/30 11:32:05;;;;;;;6.72;3.90;;;;;;;26.33;22.12;100378.63;4437864;32;34251;-60
2022/04/30 11:34:33;;;;;;;6.32;3.58;;;;;;;26.57;19.85;100372.13;4438278;32;34066;-60
2022/04/30 11:37:01;;;;;;;6.12;3.67;;;;;;;26.08;20.68;100368.22;4438614;32;33885;-60
2022/04/30 11:39:29;;;;;;;5.62;3.55;;;;;;;25.65;19.83;100363.28;4428679;32;31690;-62
2022/04/30 11:41:57;;;;;;;5.00;3.40;;;;;;;26.12;20.17;100355.81;4439027;32;32562;-60
2022/04/30 11:44:26;;;;;;;6.15;3.50;;;;;;;26.13;21.43;100359.34;4438838;32;33853;-62
2022/04/30 11:46:54;;;;;;;11.80;4.00;;;;;;;26.43;21.28;100352.81;4436144;32;33706;-60
2022/04/30 11:49:23;;;;;;;5.55;3.35;;;;;;;25.93;22.72;100357.75;4440303;32;34375;-62
2022/04/30 11:52:05;;;;;;;8.88;3.83;;;;;;;25.61;23.34;100350.94;4445974;32;33501;-60
2022/04/30 11:54:37;;;;;;;5.40;3.12;;;;;;;25.90;22.05;100347.12;4449413;32;33926;-62
2022/04/30 11:57:05;;;;;;;6.87;3.80;;;;;;;26.19;21.59;100348.66;4448669;32;33740;-61
2022/04/30 11:59:39;;;;;;;7.62;3.22;;;;;;;26.00;21.17;100343.53;4433025;32;33510;-61
2022/04/30 12:02:09;;;;;;;6.25;3.25;;;;;;;24.43;22.24;100340.94;4433123;32;34098;-60